Latest Weather Observations for Strathalbyn

IDS60801

Issued at 3:51 pm CST Tuesday 20 April 2021 (issued every 10 minutes, with the page automatically refreshed every 10 minutes)

About weather observations | Map of weather stations | Latest weather observations for SA | Other Formats
Station Details ID: 024580 Name: STRATHALBYN RACECOURSE Lat: -35.28 Lon: 138.89 Height: 58.0 m
Data from the previous 72 hours. | See also: Recent months at Strathalbyn
Date/Time
CST
Temp
°C
App
Temp
°C
Dew
Point
°C
Rel
Hum
%
Delta-T
°C
Wind Press
QNH
hPa
Press
MSL
hPa
Rain since
9am
mm
Dir  Spd
km/h
Gust
km/h
Spd
kts
Gust
kts
20/03:30pm 14.9 9.1 6.2 56 4.2 SSW 26 35 14 19 1017.2 1017.2 3.2
20/03:00pm 15.3 9.3 7.1 58 4.0 S 28 35 15 19 1016.9 1016.9 3.2
20/02:30pm 15.2 8.7 6.7 57 4.1 SSW 30 41 16 22 1016.6 1016.6 3.2
20/02:00pm 14.7 8.0 7.3 61 3.6 SSW 32 41 17 22 1016.4 1016.3 3.2
20/01:30pm 16.3 10.7 8.8 61 3.8 SSW 28 37 15 20 1016.4 1016.3 3.2
20/01:00pm 15.0 8.2 7.5 61 3.7 SSW 33 43 18 23 1016.4 1016.3 3.2
20/12:30pm 13.8 8.2 10.0 78 2.0 SSW 30 44 16 24 1016.7 1016.7 3.2
20/12:25pm 14.2 8.8 9.4 73 2.5 SSW 28 43 15 23 1016.5 1016.5 3.2
20/12:00pm 13.5 11.0 10.9 84 1.4 SSW 15 20 8 11 1016.7 1016.7 3.2
20/11:33am 12.4 7.9 10.1 86 1.2 SSW 24 46 13 25 1016.6 1016.6 3.2
20/11:30am 13.1 10.2 12.2 94 0.5 SSW 19 28 10 15 1016.7 1016.7 3.2
20/11:00am 12.6 7.2 11.0 90 0.8 SSW 30 37 16 20 1016.5 1016.5 2.6
20/10:30am 13.2 7.1 10.6 84 1.4 SSW 33 43 18 23 1015.9 1015.8 2.6
20/10:00am 12.8 7.2 10.2 84 1.3 SSW 30 41 16 22 1015.4 1015.3 2.6
20/09:30am 13.2 9.0 12.4 95 0.4 SW 26 35 14 19 1015.2 1015.1 1.6
20/09:00am 13.7 10.1 12.9 95 0.4 SW 24 35 13 19 1014.3 1014.2 4.4
20/08:30am 16.0 13.2 11.2 73 2.6 NW 17 26 9 14 1013.3 1013.2 0.0
20/08:00am 16.0 12.0 10.5 70 2.9 NW 22 35 12 19 1012.9 1012.8 0.0
20/07:30am 15.6 11.6 10.4 71 2.7 NW 22 30 12 16 1012.6 1012.5 0.0
20/07:00am 14.4 10.6 9.8 74 2.4 NW 20 26 11 14 1012.5 1012.4 0.0
20/06:30am 14.6 10.9 10.0 74 2.4 NW 20 30 11 16 1012.2 1012.1 0.0
20/06:00am 14.1 9.8 9.3 73 2.5 NW 22 32 12 17 1012.1 1012.0 0.0
20/05:30am 13.4 11.6 9.3 76 2.1 NNW 9 19 5 10 1012.4 1012.3 0.0
20/05:00am 10.9 9.3 7.8 81 1.5 E 6 9 3 5 1012.5 1012.4 0.0
20/04:30am 12.3 10.1 8.0 75 2.1 NNW 9 20 5 11 1012.5 1012.4 0.0
20/04:00am 11.0 8.0 7.7 80 1.6 NNW 13 17 7 9 1012.5 1012.4 0.0
20/03:30am 11.6 9.5 8.3 80 1.6 NNW 9 13 5 7 1012.7 1012.6 0.0
20/03:00am 10.9 8.8 8.3 84 1.3 NNW 9 13 5 7 1012.9 1012.8 0.0
20/02:30am 9.8 7.0 7.1 83 1.3 N 11 13 6 7 1013.0 1012.9 0.0
20/02:00am 9.7 6.9 7.0 83 1.3 N 11 15 6 8 1013.2 1013.1 0.0
20/01:30am 10.0 7.7 7.3 83 1.3 N 9 11 5 6 1013.5 1013.4 0.0
20/01:00am 10.0 7.5 6.7 80 1.6 N 9 11 5 6 1013.9 1013.8 0.0
20/12:30am 10.8 8.4 7.1 78 1.8 N 9 11 5 6 1014.2 1014.1 0.0
20/12:00am 11.1 8.3 7.0 76 2.0 N 11 13 6 7 1014.3 1014.2 0.0
 
Date/Time
CST
Temp
°C
App
Temp
°C
Dew
Point
°C
Rel
Hum
%
Delta-T
°C
Wind Press
QNH
hPa
Press
MSL
hPa
Rain since
9am
mm
Dir  Spd
km/h
Gust
km/h
Spd
kts
Gust
kts
19/11:30pm 10.8 7.6 6.7 76 1.9 NNW 13 15 7 8 1014.5 1014.4 0.0
19/11:00pm 11.3 8.0 6.6 73 2.2 NNW 13 17 7 9 1015.0 1014.9 0.0
19/10:30pm 11.6 8.3 6.5 71 2.4 NNW 13 17 7 9 1015.1 1015.0 0.0
19/10:00pm 11.8 8.5 6.5 70 2.5 NNW 13 15 7 8 1015.2 1015.1 0.0
19/09:30pm 12.1 8.8 6.4 68 2.7 NNW 13 17 7 9 1015.3 1015.2 0.0
19/09:00pm 12.5 8.9 6.8 68 2.7 NW 15 17 8 9 1015.3 1015.2 0.0
19/08:30pm 12.2 8.9 6.5 68 2.7 NNW 13 15 7 8 1015.4 1015.3 0.0
19/08:00pm 12.2 9.3 6.3 67 2.8 NNW 11 15 6 8 1015.3 1015.2 0.0
19/07:30pm 13.0 10.7 5.9 62 3.4 NW 7 9 4 5 1015.5 1015.4 0.0
19/07:00pm 15.7 13.5 6.4 54 4.5 NW 7 7 4 4 1015.6 1015.5 0.0
19/06:30pm 17.5 15.5 7.0 50 5.2 NW 7 11 4 6 1015.5 1015.4 0.0
19/06:00pm 18.0 14.8 6.8 48 5.6 NW 13 19 7 10 1015.3 1015.2 0.0
19/05:30pm 18.3 14.4 7.1 48 5.6 NW 17 20 9 11 1015.1 1015.0 0.0
19/05:00pm 18.5 14.3 7.3 48 5.7 WNW 19 28 10 15 1015.1 1015.0 0.0
19/04:30pm 18.9 14.7 7.4 47 5.8 WNW 19 24 10 13 1015.1 1015.0 0.0
19/04:00pm 19.3 14.4 6.8 44 6.3 NW 22 30 12 16 1015.2 1015.1 0.0
19/03:30pm 20.1 15.8 7.1 43 6.6 NW 19 26 10 14 1015.2 1015.1 0.0
19/03:00pm 19.5 14.8 7.6 46 6.1 NW 22 30 12 16 1015.3 1015.2 0.0
19/02:30pm 19.0 14.1 8.4 50 5.5 NW 24 37 13 20 1015.6 1015.5 0.0
19/02:00pm 19.0 14.9 8.6 51 5.4 NW 20 32 11 17 1015.8 1015.7 0.0
19/01:30pm 18.6 13.8 8.8 53 5.1 NW 24 32 13 17 1016.2 1016.1 0.0
19/01:00pm 18.4 14.3 8.7 53 5.0 NW 20 28 11 15 1016.7 1016.7 0.0
19/12:30pm 18.3 14.5 9.1 55 4.8 NW 19 28 10 15 1017.2 1017.2 0.0
19/12:00pm 17.4 13.0 9.1 58 4.3 NW 22 28 12 15 1017.8 1017.8 0.0
19/11:30am 17.8 13.8 8.9 56 4.6 NW 20 28 11 15 1018.2 1018.2 0.0
19/11:00am 18.2 15.0 10.1 59 4.3 NW 17 26 9 14 1018.5 1018.5 0.0
19/10:30am 17.5 14.2 9.7 60 4.1 NNW 17 26 9 14 1018.8 1018.8 0.0
19/10:00am 16.8 13.2 10.4 66 3.4 NNW 20 28 11 15 1019.0 1019.0 0.0
19/09:30am 15.9 12.3 10.7 71 2.8 NNW 20 28 11 15 1019.2 1019.2 0.0
19/09:00am 15.4 13.0 11.4 77 2.1 N 15 20 8 11 1019.3 1019.3 0.2
19/08:30am 14.2 13.4 11.7 85 1.3 NNE 7 11 4 6 1019.5 1019.5 0.2
19/08:00am 14.0 10.6 10.6 80 1.8 NW 19 26 10 14 1019.6 1019.6 0.0
19/07:30am 14.9 12.4 9.7 71 2.7 NW 13 15 7 8 1019.1 1019.1 0.0
19/07:00am 14.6 12.1 9.8 73 2.5 NNW 13 17 7 9 1018.9 1018.9 0.0
19/06:30am 13.2 12.0 9.6 79 1.8 NNE 6 7 3 4 1019.0 1019.0 0.0
19/06:00am 13.6 13.1 10.6 82 1.6 ENE 4 7 2 4 1019.1 1019.1 0.0
19/05:30am 13.9 13.0 10.7 81 1.7 WSW 6 9 3 5 1019.3 1019.3 0.0
19/05:00am 14.3 12.6 9.9 75 2.3 SW 9 11 5 6 1019.3 1019.3 0.0
19/04:30am 13.9 12.6 9.3 74 2.3 W 6 7 3 4 1019.1 1019.1 0.0
19/04:00am 14.7 13.0 9.7 72 2.6 NW 9 15 5 8 1019.1 1019.1 0.0
19/03:30am 14.3 12.2 9.7 74 2.4 NW 11 13 6 7 1019.3 1019.3 0.0
19/03:00am 14.2 13.0 9.6 74 2.4 WNW 6 7 3 4 1019.4 1019.4 0.0
19/02:30am 14.1 12.7 9.5 74 2.4 WNW 7 11 4 6 1020.0 1019.9 0.0
19/02:00am 13.6 12.2 9.5 76 2.1 NW 7 9 4 5 1020.3 1020.2 0.0
19/01:30am 12.6 12.3 8.7 77 1.9 CALM 0 0 0 0 1020.6 1020.5 0.0
19/01:00am 13.6 12.2 8.9 73 2.4 NW 6 7 3 4 1021.0 1020.9 0.0
19/12:30am 14.4 12.9 9.0 70 2.7 N 7 9 4 5 1021.1 1021.0 0.0
19/12:00am 14.6 12.7 9.2 70 2.8 NNW 9 9 5 5 1021.5 1021.4 0.0
 
Date/Time
CST
Temp
°C
App
Temp
°C
Dew
Point
°C
Rel
Hum
%
Delta-T
°C
Wind Press
QNH
hPa
Press
MSL
hPa
Rain since
9am
mm
Dir  Spd
km/h
Gust
km/h
Spd
kts
Gust
kts
18/11:30pm 14.6 12.7 9.0 69 2.8 NW 9 11 5 6 1021.8 1021.7 0.0
18/11:00pm 14.6 12.2 8.8 68 2.9 NNW 11 13 6 7 1021.9 1021.8 0.0
18/10:30pm 14.6 12.7 9.0 69 2.8 NNW 9 13 5 7 1022.1 1022.0 0.0
18/10:00pm 14.8 12.9 9.2 69 2.9 N 9 13 5 7 1022.1 1022.0 0.0
18/09:30pm 14.7 13.4 9.9 73 2.5 NNW 7 7 4 4 1022.5 1022.4 0.0
18/09:00pm 14.8 13.8 10.4 75 2.3 NW 6 9 3 5 1022.5 1022.4 0.0
18/08:30pm 15.3 14.8 10.7 74 2.4 SSW 4 7 2 4 1022.6 1022.5 0.0
18/08:00pm 15.6 14.5 10.6 72 2.7 SSW 7 9 4 5 1022.8 1022.7 0.0
18/07:30pm 16.1 14.6 8.6 61 3.8 NW 6 7 3 4 1023.0 1022.9 0.0
18/07:00pm 16.2 16.0 10.5 69 3.0 WNW 2 7 1 4 1023.1 1023.0 0.0
18/06:30pm 16.6 15.5 10.7 68 3.1 SSW 7 9 4 5 1022.9 1022.8 0.0
18/06:00pm 16.8 15.3 10.4 66 3.4 SSW 9 13 5 7 1022.8 1022.7 0.0
18/05:30pm 17.1 14.4 10.5 65 3.5 SSW 15 20 8 11 1022.9 1022.8 0.0
18/05:00pm 17.5 13.8 10.1 62 3.9 SSW 20 24 11 13 1022.6 1022.5 0.0
18/04:30pm 18.8 15.2 6.6 45 6.1 SW 15 24 8 13 1022.5 1022.4 0.0
18/04:00pm 19.9 15.6 7.0 43 6.6 WNW 19 24 10 13 1022.5 1022.4 0.0
18/03:30pm 18.4 14.2 7.5 49 5.5 WNW 19 24 10 13 1022.5 1022.4 0.0
18/03:00pm 19.3 15.8 5.4 40 6.8 WSW 13 22 7 12 1022.6 1022.5 0.0
18/02:30pm 19.7 16.0 4.6 37 7.3 WSW 13 19 7 10 1022.6 1022.5 0.0
18/02:00pm 19.4 15.4 5.1 39 7.0 WSW 15 20 8 11 1022.9 1022.8 0.0
18/01:30pm 19.4 16.0 5.8 41 6.7 W 13 20 7 11 1023.2 1023.1 0.0
18/01:00pm 19.3 14.7 5.4 40 6.8 W 19 30 10 16 1023.5 1023.4 0.0
18/12:30pm 20.5 16.7 4.1 34 7.9 NNW 13 20 7 11 1023.9 1023.8 0.0
18/12:00pm 18.5 13.9 5.4 42 6.4 WSW 19 24 10 13 1024.5 1024.4 0.0
18/11:30am 18.5 14.9 5.0 41 6.5 WSW 13 19 7 10 1024.9 1024.8 0.0
18/11:00am 19.2 15.0 5.6 41 6.7 W 17 26 9 14 1025.1 1025.0 0.0
18/10:30am 18.4 14.7 4.6 40 6.6 SW 13 20 7 11 1025.3 1025.2 0.0
18/10:00am 17.9 15.1 8.5 54 4.9 WSW 13 19 7 10 1025.7 1025.6 0.0
18/09:30am 17.7 15.2 9.6 59 4.2 SW 13 19 7 10 1025.9 1025.8 0.0
18/09:00am 17.2 14.6 9.4 60 4.1 W 13 17 7 9 1026.0 1025.9 0.0
18/08:30am 17.2 15.0 9.4 60 4.1 WSW 11 17 6 9 1026.0 1025.9 0.0
18/08:00am 14.5 14.2 8.5 67 3.0 CALM 0 0 0 0 1026.0 1025.9 0.0
18/07:30am 13.0 12.3 8.5 74 2.2 NNE 2 7 1 4 1025.9 1025.8 0.0
18/07:00am 12.6 11.0 8.7 77 2.0 N 7 7 4 4 1025.6 1025.5 0.0
18/06:30am 12.3 10.7 8.6 78 1.8 NNW 7 9 4 5 1025.5 1025.4 0.0
18/06:00am 12.6 12.2 8.3 75 2.1 CALM 0 0 0 0 1025.6 1025.5 0.0
18/05:30am 12.9 11.3 8.2 73 2.3 NNW 6 7 3 4 1025.5 1025.4 0.0
18/05:00am 13.2 11.6 8.7 74 2.3 NNW 7 9 4 5 1025.6 1025.5 0.0
18/04:30am 13.3 11.9 9.0 75 2.2 WSW 6 7 3 4 1025.7 1025.6 0.0
18/04:00am 13.7 11.4 9.0 73 2.4 SW 11 15 6 8 1025.6 1025.5 0.0
18/03:30am 12.9 10.9 8.8 76 2.0 S 9 17 5 9 1025.7 1025.6 0.0
18/03:00am 13.0 12.3 8.5 74 2.2 SW 2 9 1 5 1025.6 1025.5 0.0
18/02:30am 13.6 11.9 9.8 78 1.9 WNW 9 13 5 7 1025.8 1025.7 0.0
18/02:00am 11.2 9.5 7.7 79 1.7 NNW 6 7 3 4 1026.0 1025.9 0.0
18/01:30am 13.2 10.5 9.1 76 2.1 WNW 13 17 7 9 1026.2 1026.1 0.0
18/01:00am 13.0 10.7 9.1 77 2.0 WNW 11 15 6 8 1026.3 1026.2 0.0
18/12:30am 12.2 10.6 8.1 76 2.0 NNW 6 9 3 5 1026.4 1026.3 0.0
18/12:00am 13.3 12.5 8.0 70 2.6 NNE 2 6 1 3 1026.5 1026.4 0.0
 
Date/Time
CST
Temp
°C
App
Temp
°C
Dew
Point
°C
Rel
Hum
%
Delta-T
°C
Wind Press
QNH
hPa
Press
MSL
hPa
Rain since
9am
mm
Dir  Spd
km/h
Gust
km/h
Spd
kts
Gust
kts
17/11:30pm 14.4 12.7 8.4 67 3.0 W 7 9 4 5 1026.6 1026.5 0.0
17/11:00pm 14.8 12.7 8.3 65 3.3 W 9 11 5 6 1027.0 1026.9 0.0
17/10:30pm 15.0 13.3 8.3 64 3.4 W 7 11 4 6 1027.1 1027.0 0.0
17/10:00pm 14.6 12.8 7.9 64 3.3 W 7 9 4 5 1027.2 1027.1 0.0
17/09:30pm 14.4 12.2 7.7 64 3.3 WNW 9 11 5 6 1027.2 1027.1 0.0
17/09:00pm 14.3 11.5 7.1 62 3.5 WNW 11 13 6 7 1027.1 1027.0 0.0
17/08:30pm 15.2 12.9 7.3 59 3.9 W 9 11 5 6 1027.3 1027.2 0.0
17/08:00pm 15.5 12.5 7.5 59 4.0 W 13 17 7 9 1027.3 1027.2 0.0
17/07:30pm 15.7 13.1 7.7 59 4.0 NW 11 13 6 7 1027.3 1027.2 0.0
17/07:00pm 16.0 13.0 7.7 58 4.2 WNW 13 17 7 9 1027.2 1027.1 0.0
17/06:30pm 16.2 13.6 7.7 57 4.2 W 11 15 6 8 1027.2 1027.1 0.0
17/06:00pm 16.3 14.5 7.8 57 4.3 WSW 7 9 4 5 1027.1 1027.0 0.0
17/05:30pm 16.6 13.3 8.1 57 4.3 SSW 15 19 8 10 1027.0 1026.9 0.0
17/05:00pm 16.8 12.5 7.2 53 4.8 SSW 19 22 10 12 1026.7 1026.6 0.0
17/04:30pm 17.6 13.4 5.9 46 5.7 SSW 17 22 9 12 1026.5 1026.4 0.0
17/04:00pm 17.9 13.2 6.1 46 5.8 SSW 20 26 11 14 1026.5 1026.4 0.0

Other formats

Comma delimited format used in spreadsheet applications
http://www.bom.gov.au/fwo/IDS60801/IDS60801.94814.axf

JavaScript Object Notation format (JSON) in row-major order
http://www.bom.gov.au/fwo/IDS60801/IDS60801.94814.json

Data quality

Most of these data are generated automatically and are frequently updated. Quality checks on data are not normally performed. It is possible for incorrect values to appear. Refer to information at About Latest Weather Observations and please check the disclaimer before using these data.